createdAt,value
2018-06-29T00:01:34.273Z,30.73
2018-06-29T00:04:07.362Z,30.75
2018-06-29T00:06:43.949Z,30.85
2018-06-29T00:09:15.906Z,30.89
2018-06-29T00:11:46.410Z,30.93
2018-06-29T00:14:18.279Z,30.80
2018-06-29T00:16:51.205Z,30.90
2018-06-29T00:19:21.811Z,30.95
2018-06-29T00:21:52.300Z,31.02
2018-06-29T00:24:23.433Z,30.95
2018-06-29T00:26:56.308Z,30.76
2018-06-29T00:29:26.878Z,30.72
2018-06-29T00:31:57.217Z,30.72
2018-06-29T00:34:32.589Z,30.63
2018-06-29T00:37:03.050Z,30.49
2018-06-29T00:39:33.708Z,30.28
2018-06-29T00:42:07.536Z,30.29
2018-06-29T00:44:39.482Z,30.27
2018-06-29T00:47:10.051Z,30.19
2018-06-29T00:49:41.433Z,30.16
2018-06-29T00:52:12.917Z,30.19
2018-06-29T00:54:44.668Z,30.18
2018-06-29T00:57:17.249Z,30.20
2018-06-29T00:59:49.305Z,30.12
2018-06-29T01:02:20.660Z,30.21
2018-06-29T01:04:52.029Z,30.16
2018-06-29T01:07:23.674Z,30.23
2018-06-29T01:09:55.047Z,30.17
2018-06-29T01:12:26.377Z,30.27
2018-06-29T01:15:01.609Z,30.22
2018-06-29T01:17:33.946Z,30.21
2018-06-29T01:20:05.345Z,30.03
2018-06-29T01:22:38.444Z,30.15
2018-06-29T01:25:09.973Z,30.15
2018-06-29T01:27:42.897Z,30.11
2018-06-29T01:30:16.534Z,30.17
2018-06-29T01:32:47.933Z,30.20
2018-06-29T01:35:19.477Z,30.12
2018-06-29T01:37:50.771Z,30.11
2018-06-29T01:40:32.881Z,30.14
2018-06-29T01:43:04.275Z,30.02
2018-06-29T01:45:35.642Z,30.01
2018-06-29T01:48:07.582Z,30.04
2018-06-29T01:50:39.106Z,30.02
2018-06-29T01:53:18.648Z,30.01
